Hanjin Namu — VRNA8 — position and weather

sailwx.info

Track history (hours):
 
Tides and Currents Weather Stations Pressure Air Temp Water Temp Dewpoint Dewpoint Depression Visibility Wind Speed Wind Dir Waves Ship Positions

Hanjin Namu

Last reported at 2018-Feb-17 15:43 UTC. Time now 2018-Feb-23 20:26 UTC.
Position N 22°20' E 114°07'.

Length 337 m; draft 11.1 m.

Type: Ship (hazmat cat A). MMSI: 477441400.

Date/timePositionNaut miles runAvg speedWind from/ knotsBaromVisibWave heightAir tempDewpointWater temp
2018-Feb-17 15:43N 22°20' E 114°07'308 5.9
2018-Feb-15 11:44N 22°27' E 119°40'310.9
2018-Feb-15 11:26N 22°27' E 119°44'510.6
2018-Feb-15 11:00N 22°28' E 119°49'510.7
2018-Feb-15 10:30N 22°29' E 119°55'510.6
2018-Feb-15 10:00N 22°30' E 120°00'510.5
2018-Feb-15 09:30N 22°31' E 120°06'511.0
2018-Feb-15 09:00N 22°32' E 120°11'612.1
2018-Feb-15 08:30N 22°33' E 120°18'2 3.1
2018-Feb-15 07:58N 22°33' E 120°20'0 0.0
2018-Feb-15 07:28N 22°33' E 120°20'0 0.0
2018-Feb-15 06:58N 22°33' E 120°20'0 0.0
2018-Feb-15 06:25N 22°33' E 120°20'0 0.0
2018-Feb-15 05:58N 22°33' E 120°20'0 0.0
2018-Feb-15 05:28N 22°33' E 120°20'0 0.0
2018-Feb-15 04:58N 22°33' E 120°20'0 0.0
2018-Feb-15 04:28N 22°33' E 120°20'0 0.0
2018-Feb-15 03:58N 22°33' E 120°20'0 0.0
2018-Feb-15 03:28N 22°33' E 120°20'0 0.0
2018-Feb-15 02:58N 22°33' E 120°20'0 0.1
2018-Feb-15 02:28N 22°33' E 120°20'0 0.1
2018-Feb-15 01:58N 22°33' E 120°20'0 0.0
2018-Feb-15 01:28N 22°33' E 120°20'0 0.0
2018-Feb-15 00:58N 22°33' E 120°20'0 0.0
2018-Feb-15 00:28N 22°33' E 120°20'0 0.0
2018-Feb-14 23:58N 22°33' E 120°20'0 0.0
2018-Feb-14 23:28N 22°33' E 120°20'0 0.0
2018-Feb-14 22:58N 22°33' E 120°20'0 0.0
2018-Feb-14 22:28N 22°33' E 120°20'0 0.0
2018-Feb-14 21:58N 22°33' E 120°20'0 0.0
2018-Feb-14 21:28N 22°33' E 120°20'0 0.0
2018-Feb-14 20:55N 22°33' E 120°20'0 0.0
2018-Feb-14 20:28N 22°33' E 120°20'0 0.0
2018-Feb-14 19:58N 22°33' E 120°20'0 0.0
2018-Feb-14 19:28N 22°33' E 120°20'0 0.0
2018-Feb-14 18:58N 22°33' E 120°20'0 0.2
2018-Feb-14 18:31N 22°33' E 120°20'3 6.7
2018-Feb-14 18:00N 22°32' E 120°16'4 7.0
2018-Feb-14 17:30N 22°31' E 120°12'510.8
2018-Feb-14 17:00N 22°30' E 120°07'814.7
2018-Feb-14 16:30N 22°28' E 119°59'815.6
2018-Feb-14 16:00N 22°24' E 119°52'816.2
2018-Feb-14 15:30N 22°17' E 119°47'916.7
2018-Feb-14 14:57N 22°10' E 119°40'  
2018-Feb-10 15:48N 01°21' E 104°25'1815.7
2018-Feb-10 14:39N 01°15' E 104°08'316.4
2018-Feb-10 14:28N 01°15' E 104°05'715.6
2018-Feb-10 14:00N 01°14' E 103°58'714.0
2018-Feb-10 13:30N 01°11' E 103°51'4 7.8
2018-Feb-10 13:00N 01°13' E 103°48'5 9.2
2018-Feb-10 12:30N 01°17' E 103°45'1 2.4
2018-Feb-10 12:00N 01°17' E 103°46'0 0.1
2018-Feb-10 11:25N 01°17' E 103°46'0 0.0
2018-Feb-10 10:58N 01°17' E 103°46'0 0.0
2018-Feb-10 10:28N 01°17' E 103°46'0 0.0
2018-Feb-10 09:58N 01°17' E 103°46'0 0.0
2018-Feb-10 09:28N 01°17' E 103°46'0 0.0
2018-Feb-10 08:58N 01°17' E 103°46'0 0.0
2018-Feb-10 08:28N 01°17' E 103°46'0 0.0
2018-Feb-10 07:58N 01°17' E 103°46'0 0.0
2018-Feb-10 07:28N 01°17' E 103°46'0 0.0
2018-Feb-10 06:58N 01°17' E 103°46'0 0.0
2018-Feb-10 06:28N 01°17' E 103°46'0 0.0
2018-Feb-10 05:58N 01°17' E 103°46'0 0.0
2018-Feb-10 05:28N 01°17' E 103°46'0 0.0
2018-Feb-10 04:58N 01°17' E 103°46'0 0.0
2018-Feb-10 04:28N 01°17' E 103°46'0 0.0
2018-Feb-10 03:58N 01°17' E 103°46'0 0.0
2018-Feb-10 03:28N 01°17' E 103°46'0 0.0
2018-Feb-10 02:58N 01°17' E 103°46'0 0.0
2018-Feb-10 02:28N 01°17' E 103°46'0 0.0
2018-Feb-10 01:58N 01°17' E 103°46'0 0.0
2018-Feb-10 01:28N 01°17' E 103°46'0 0.0
2018-Feb-10 00:58N 01°17' E 103°46'0 0.0
2018-Feb-10 00:28N 01°17' E 103°46'0 0.0
2018-Feb-09 23:58N 01°17' E 103°46'0 0.0
2018-Feb-09 23:28N 01°17' E 103°46'0 0.0
2018-Feb-09 22:58N 01°17' E 103°46'0 0.0
2018-Feb-09 22:46N 01°17' E 103°46'1 0.1
2018-Feb-09 09:00N 01°17' E 103°45'15 7.6
2018-Feb-09 07:00N 01°10' E 103°31'  
Track history (hours):
 
Tides and Currents Weather Stations Pressure Air Temp Water Temp Dewpoint Dewpoint Depression Visibility Wind Speed Wind Dir Waves Ship Positions

Hanjin Namu

Last reported at 2018-Feb-17 15:43 UTC. Time now 2018-Feb-23 20:26 UTC.
Position N 22°20' E 114°07'.

Length 337 m; draft 11.1 m.

Type: Ship (hazmat cat A). MMSI: 477441400.

Date/timePositionNaut miles runAvg speedWind from/ knotsBaromVisibWave heightAir tempDewpointWater temp
2018-Feb-17 15:43N 22°20' E 114°07'308 5.9
2018-Feb-15 11:44N 22°27' E 119°40'310.9
2018-Feb-15 11:26N 22°27' E 119°44'510.6
2018-Feb-15 11:00N 22°28' E 119°49'510.7
2018-Feb-15 10:30N 22°29' E 119°55'510.6
2018-Feb-15 10:00N 22°30' E 120°00'510.5
2018-Feb-15 09:30N 22°31' E 120°06'511.0
2018-Feb-15 09:00N 22°32' E 120°11'612.1
2018-Feb-15 08:30N 22°33' E 120°18'2 3.1
2018-Feb-15 07:58N 22°33' E 120°20'0 0.0
2018-Feb-15 07:28N 22°33' E 120°20'0 0.0
2018-Feb-15 06:58N 22°33' E 120°20'0 0.0
2018-Feb-15 06:25N 22°33' E 120°20'0 0.0
2018-Feb-15 05:58N 22°33' E 120°20'0 0.0
2018-Feb-15 05:28N 22°33' E 120°20'0 0.0
2018-Feb-15 04:58N 22°33' E 120°20'0 0.0
2018-Feb-15 04:28N 22°33' E 120°20'0 0.0
2018-Feb-15 03:58N 22°33' E 120°20'0 0.0
2018-Feb-15 03:28N 22°33' E 120°20'0 0.0
2018-Feb-15 02:58N 22°33' E 120°20'0 0.1
2018-Feb-15 02:28N 22°33' E 120°20'0 0.1
2018-Feb-15 01:58N 22°33' E 120°20'0 0.0
2018-Feb-15 01:28N 22°33' E 120°20'0 0.0
2018-Feb-15 00:58N 22°33' E 120°20'0 0.0
2018-Feb-15 00:28N 22°33' E 120°20'0 0.0
2018-Feb-14 23:58N 22°33' E 120°20'0 0.0
2018-Feb-14 23:28N 22°33' E 120°20'0 0.0
2018-Feb-14 22:58N 22°33' E 120°20'0 0.0
2018-Feb-14 22:28N 22°33' E 120°20'0 0.0
2018-Feb-14 21:58N 22°33' E 120°20'0 0.0
2018-Feb-14 21:28N 22°33' E 120°20'0 0.0
2018-Feb-14 20:55N 22°33' E 120°20'0 0.0
2018-Feb-14 20:28N 22°33' E 120°20'0 0.0
2018-Feb-14 19:58N 22°33' E 120°20'0 0.0
2018-Feb-14 19:28N 22°33' E 120°20'0 0.0
2018-Feb-14 18:58N 22°33' E 120°20'0 0.2
2018-Feb-14 18:31N 22°33' E 120°20'3 6.7
2018-Feb-14 18:00N 22°32' E 120°16'4 7.0
2018-Feb-14 17:30N 22°31' E 120°12'510.8
2018-Feb-14 17:00N 22°30' E 120°07'814.7
2018-Feb-14 16:30N 22°28' E 119°59'815.6
2018-Feb-14 16:00N 22°24' E 119°52'816.2
2018-Feb-14 15:30N 22°17' E 119°47'916.7
2018-Feb-14 14:57N 22°10' E 119°40'  
2018-Feb-10 15:48N 01°21' E 104°25'1815.7
2018-Feb-10 14:39N 01°15' E 104°08'316.4
2018-Feb-10 14:28N 01°15' E 104°05'715.6
2018-Feb-10 14:00N 01°14' E 103°58'714.0
2018-Feb-10 13:30N 01°11' E 103°51'4 7.8
2018-Feb-10 13:00N 01°13' E 103°48'5 9.2
2018-Feb-10 12:30N 01°17' E 103°45'1 2.4
2018-Feb-10 12:00N 01°17' E 103°46'0 0.1
2018-Feb-10 11:25N 01°17' E 103°46'0 0.0
2018-Feb-10 10:58N 01°17' E 103°46'0 0.0
2018-Feb-10 10:28N 01°17' E 103°46'0 0.0
2018-Feb-10 09:58N 01°17' E 103°46'0 0.0
2018-Feb-10 09:28N 01°17' E 103°46'0 0.0
2018-Feb-10 08:58N 01°17' E 103°46'0 0.0
2018-Feb-10 08:28N 01°17' E 103°46'0 0.0
2018-Feb-10 07:58N 01°17' E 103°46'0 0.0
2018-Feb-10 07:28N 01°17' E 103°46'0 0.0
2018-Feb-10 06:58N 01°17' E 103°46'0 0.0
2018-Feb-10 06:28N 01°17' E 103°46'0 0.0
2018-Feb-10 05:58N 01°17' E 103°46'0 0.0
2018-Feb-10 05:28N 01°17' E 103°46'0 0.0
2018-Feb-10 04:58N 01°17' E 103°46'0 0.0
2018-Feb-10 04:28N 01°17' E 103°46'0 0.0
2018-Feb-10 03:58N 01°17' E 103°46'0 0.0
2018-Feb-10 03:28N 01°17' E 103°46'0 0.0
2018-Feb-10 02:58N 01°17' E 103°46'0 0.0
2018-Feb-10 02:28N 01°17' E 103°46'0 0.0
2018-Feb-10 01:58N 01°17' E 103°46'0 0.0
2018-Feb-10 01:28N 01°17' E 103°46'0 0.0
2018-Feb-10 00:58N 01°17' E 103°46'0 0.0
2018-Feb-10 00:28N 01°17' E 103°46'0 0.0
2018-Feb-09 23:58N 01°17' E 103°46'0 0.0
2018-Feb-09 23:28N 01°17' E 103°46'0 0.0
2018-Feb-09 22:58N 01°17' E 103°46'0 0.0
2018-Feb-09 22:46N 01°17' E 103°46'1 0.1
2018-Feb-09 09:00N 01°17' E 103°45'15 7.6
2018-Feb-09 07:00N 01°10' E 103°31'  

Dump ship's entire track history